Decoded Metar for LYNI (NIS in SERBIA) (IATA:INI) | Meteo·Mobile Aviation Weather
aviador You're here:

LYNI Decoded Metar

NIS in SERBIA
Report Time2019-06-26 22:00:00
UTC Time2019-06-26 22:20:45
Flight Rules vfr VFR
WindVRB at 05 kt
Visibility9999 m
Phenomena:N/A
Clouds:N/A
Expected CloudBase > 2,000 ft AGL from Temp-Dew spread
CeilingNone
Temp22°C (ISA +8)
Dew Point17°C (73% RH)
QNH1022 hPa
Density Alt1,588 ft
Elevation663 ft
Report Wrong Elevation
Raw Report
LYNI 262200Z VRB05KT CAVOK 22/17 Q1022 NOSIG=

Extra information for LYNI:More info

Metar Taf Metar & Taf Last 4 Metars F.Rules Stats Wind Profile Meteogram Temp Stats Airport Information Weather charts Add Link Nearby VenuesMetar ALERT Operation Metar Decoded Social comments